This is the latest recevied weather packets stored in our database for station/object SQ5JP-4. If no packets are shown the sender has not sent any weather packets the latest 10 day(s).
| Time | Temp. | Humidity | Pressure | Rain* | Wind** | Luminosity | Snow |
|---|---|---|---|---|---|---|---|
| 1788272336 | 18.33° C | 100% | 998.2 hPa | - | - | - | - |
| 1788271436 | 20° C | 100% | 998.3 hPa | - | - | - | - |
| 1788270536 | 20° C | 100% | 998.3 hPa | - | - | - | - |
| 1788269635 | 18.89° C | 100% | 998.2 hPa | - | - | - | - |
| 1788267839 | 21.67° C | 100% | 998 hPa | - | - | - | - |
| 1788266038 | 17.22° C | 100% | 996.8 hPa | - | - | - | - |
| 1788265137 | 17.22° C | 100% | 997 hPa | - | - | - | - |
| 1788264238 | 17.22° C | 100% | 997.4 hPa | - | - | - | - |
| 1788262437 | 19.44° C | 100% | 997.9 hPa | - | - | - | - |
| 1788261537 | 20° C | 100% | 997.8 hPa | - | - | - | - |
| 1788260636 | 19.44° C | 100% | 997.8 hPa | - | - | - | - |
| 1788259736 | 20° C | 100% | 997.9 hPa | - | - | - | - |
| 1788258836 | 20.56° C | 100% | 997.8 hPa | - | - | - | - |
| 1788257936 | 18.89° C | 100% | 997.6 hPa | - | - | - | - |
| 1788257036 | 19.44° C | 100% | 997.4 hPa | - | - | - | - |
| 1788256136 | 21.11° C | 100% | 997.4 hPa | - | - | - | - |
| 1788255235 | 20.56° C | 100% | 997.4 hPa | - | - | - | - |
| 1788254335 | 21.67° C | 100% | 997.3 hPa | - | - | - | - |
| 1788253435 | 20.56° C | 100% | 997 hPa | - | - | - | - |
| 1788252535 | 20° C | 100% | 996.9 hPa | - | - | - | - |
| 1788251635 | 19.44° C | 100% | 996.9 hPa | - | - | - | - |
| 1788250735 | 19.44° C | 100% | 996.2 hPa | - | - | - | - |
| 1788249835 | 18.89° C | 100% | 995.9 hPa | - | - | - | - |
| 1788248935 | 18.33° C | 100% | 995.5 hPa | - | - | - | - |
| 1788248034 | 18.33° C | 100% | 995.1 hPa | - | - | - | - |
* Rain since midnight (hover to see other rain measurements)
** Current wind speed in m/s (hover to see current wind gust speed)